KRZL

Details ICAO KRZL
Name JASPER CO
Region United States
Timezone America/Chicago (UTC-5.0)
Plans Departing 4
Arriving 7
Stats Elevation 698 ft / 213 m (AMSL)
Location 40.947870° -87.183188°
Runways 2
Magnetic Variation 4.164° W
Sunrise 2018-05-22 10:26:29 UTC / 2018-05-22 05:26:29 Local
Sunset 2018-05-23 01:07:13 UTC / 2018-05-22 20:07:13 Local
Advertisement - Login to hide

Runways

ID Width Length Bearing (true) Bearing (mag) Surface Threshold Offset Overrun Length
09 150 ft / 46 m 1,925 ft / 587 m 90.00° 94.16° Grass 0 ft / 0 m 0 ft / 0 m
18 60 ft / 18 m 4,006 ft / 1,221 m 179.80° 183.96° Asphalt 0 ft / 0 m 0 ft / 0 m
27 150 ft / 46 m 1,925 ft / 587 m 270.00° 274.16° Grass 140 ft / 43 m 0 ft / 0 m
36 60 ft / 18 m 4,006 ft / 1,221 m 359.80° 3.96° Asphalt 0 ft / 0 m 0 ft / 0 m

Map

Weather


0- 5 10 15 20 25 30 35+ Temperature / ° C

Clouds and Precipitation
Forecast for 2018-05-23 06:00 UTC. Updated an hour ago

Ground ~20,000 ft ~40,000 ft Winds

METAR

KRZL 230355Z AUTO 02003KT 10SM CLR 14/10 A3010 RMK AO2

TAF

Not found

Frequencies

Unicom 122.80 MHz CTAF/UNICOM
Warning: Do not use this data for real-world aviation or navigation. No guarantee of current accuracy is given.